AirNav   Everest Fuels
 
 289 users online  

JLA Quartz Creek Airport
Cooper Landing, Alaska, USA

GOING TO COOPER LANDING?


FAA INFORMATION EFFECTIVE 12 SEPTEMBER 2019

Location

FAA Identifier: JLA
Lat/Long: 60-29-03.3500N 149-43-22.4400W
60-29.055833N 149-43.374000W
60.4842639,-149.7229000
(estimated)
Elevation: 466 ft. / 142 m (estimated)
Variation: 25E (1985)
From city: 3 miles E of COOPER LANDING, AK
Time zone: UTC -8 (UTC -9 during Standard Time)
Zip code: 99572

Airport Operations

Airport use: Open to the public
Control tower: no
ARTCC: ANCHORAGE CENTER
FSS: KENAI FLIGHT SERVICE STATION [907-283-8469]
NOTAMs facility: ENA (NOTAM-D service available)
Attendance: UNATNDD
Wind indicator: yes, WINDSOCK IS BELOW TREELINE AND MAY BE UNRELIABLE.
Segmented circle: no

Airport Communications

CTAF: 122.9

Nearby radio navigation aids

NDB name  Hdg/Dist  Freq  Var  ID
SOLDOTNA074/34.234615EOLT --- .-.. -

Airport Services

Parking: tiedowns
Airframe service: NONE
Powerplant service: NONE
Bottled oxygen: NONE
Bulk oxygen: NONE

Runway Information

Runway 4/22

Dimensions: 2200 x 60 ft. / 671 x 18 m
Surface: gravel/dirt, in good condition
Gradient: NORTHEAST
RUNWAY 4  RUNWAY 22
Latitude: 60-28.956500N60-29.155167N
Longitude: 149-43.679333W149-43.068667W
Elevation: 459.0 ft.466.0 ft.
Traffic pattern: leftleft
Runway heading: 032 magnetic, 057 true212 magnetic, 237 true
Obstructions: 40 ft. trees, 120 ft. right of centerline
MTN LCTD 2 SM FM APCH END.
4 ft. brush, 117 ft. left and right of centerline

Airport Ownership and Management from official FAA records

Ownership: Publicly-owned
Owner: ALASKA DOT&PF CENTRAL REGION
P O BOX 196900
ANCHORAGE, AK 99519-6900
Phone (907) 269-0760
Manager: SEAN MONTGOMERY/CARL HIGH
STATE OF ALASKA - DOTPF, P.O. BOX 1327
SOLDOTNA, AK 99669
Phone 907-262-2199

Airport Operational Statistics

Aircraft based on the field: 3
Single engine airplanes: 3
    
Aircraft operations: avg 38/month *
89% transient general aviation
11% local general aviation
* for 12-month period ending 31 December 2017

Additional Remarks

RY 04/22 EDGES NOT MKD.
STATE MAINTENANCE ON IRREGULAR BASIS, RCMD VISUAL INSPECTION PRIOR TO LANDING.
WX CAMERA AVBL ON INTERNET AT HTTP://AVCAMS.FAA.GOV

Instrument Procedures

There are no published instrument procedures at JLA.

Some nearby airports with instrument procedures:

PAWD - Seward Airport (23 nm SE)
PASX - Soldotna Airport (39 nm W)
PANC - Ted Stevens Anchorage International Airport (42 nm N)
PAMR - Merrill Field Airport (44 nm N)
PAEN - Kenai Municipal Airport (45 nm W)
 
Loc | Ops | Rwys | IFR | FBO | Links
Com | Nav | Svcs | Stats | Notes

Crowley
 
Area around JLA (Quartz Creek Airport)
 
Road maps at: MapQuest Bing Google
 
Aerial photo
WARNING: Photo may not be current or correct
Aerial photo of JLA (Quartz Creek Airport)
Do you have a better or more recent aerial photo of Quartz Creek Airport that you would like to share? If so, please send us your photo.

 
Sectional chart

 
Airport distance calculator
Flying to Quartz Creek Airport? Find the distance to fly.

From to JLA

Sunrise and sunset
Times for 24-Sep-2019
 Local
(UTC-8)
 Zulu
(UTC)
Morning civil twilight07:0715:07
Sunrise07:4915:49
Sunset19:5203:52
Evening civil twilight20:3504:35

Current date and time
Zulu (UTC)  24-Sep-2019 08:55:26
Local (UTC-8)  24-Sep-2019 00:55:26
 
METAR
PAWD 
24nm S 
240753Z AUTO 02008KT 10SM CLR 10/03 A2953 RMK AO2 SLP000 T01000033 TSNO
PATO 
31nm NE 
240753Z AUTO 29003KT 10SM CLR 02/02 A2956 RMK AO2 SLP011 T00170017 TSNO
PASX 
39nm W 
240756Z AUTO 00000KT 10SM CLR 02/01 A2960 RMK AO2 SLP031 T00220011 FZRANO
PANC 
42nm N 
240753Z 16006KT 10SM FEW250 08/06 A2955 RMK AO2 SLP007 T00780056 $
PALH 
43nm N 
240753Z 15003KT 10SM CLR 08/04 A2956 RMK AO2 SLPNO T00780039
PAMR 
44nm N 
240753Z 00000KT 10SM SCT250 07/02 A2955 RMK AO2 SLP008 T00670022
PAEN 
45nm W 
240753Z AUTO 18003KT 10SM CLR 06/06 A2957 RMK AO2 SLP015 T00610056 TSNO
PAED 
46nm N 
240756Z AUTO 04004KT 10SM CLR 07/03 A2955 RMK AO2 SLP003 T00660034 $
PAFR 
47nm N 
240758Z AUTO 00000KT 10SM CLR 02/01 A2953 RMK AO2 SLP007 T00190008 $
TAF
PANC 
42nm N 
240520Z 2406/2512 VRB04KT P6SM FEW050 BKN250 FM242100 33005KT P6SM VCSH SCT025 OVC050
PAEN 
45nm W 
240533Z 2406/2506 VRB04KT P6SM BKN150 OVC250 FM242100 25005KT P6SM -SHRA BKN050 OVC100
PAED 
46nm N 
240300Z 2403/2509 36006KT 9999 FEW070 SCT150 BKN250 QNH2940INS TEMPO 2413/2418 BKN015 BECMG 2417/2418 29006KT 9999 SCT050 BKN100 QNH2979INS BECMG 2420/2421 29006KT 9999 VCSH SCT025 BKN050 610505 QNH2979INS TEMPO 2502/2506 9000 -SHRA BKN025 TX14/2500Z TN03/2412Z
NOTAMs
Click for the latest NOTAMs
NOTAMs are issued by the DoD/FAA and will open in a separate window not controlled by AirNav.

 

 
 

Would you like to see your business listed on this page?

 If your business provides an interesting product or service to pilots, flight crews, aircraft, or users of the Quartz Creek Airport, you should consider listing it here.  To start the listing process, click on the button below
 
Add a business
 

Other Pages about Quartz Creek Airport

Update a link
 
Copyright © AirNav, LLC. All rights reserved. Privacy Policy  Contact